• Join FlightAware (Why Join?)
  • Login
  • US Flag 
06:57AM EDT


 

Airport Tracker/Info


-or-


 

Live Flight TrackerFlight Track Log ✈ N146TJ ✈ 24-Jan-2014 ✈ KALB - KFOK

Flight Track Log - Related Links

Times and Time Zones

All times are in EST time to prevent confusion due to time zone crossing. See the N146TJ flight status page for this flight to view local times or setup timezone preferences in your user account.

Time Position Orientation Groundspeed Altitude Reporting Facility
EST Latitude Longitude Course Direction KTS MPH feet Rate Location/Type
01:23PM 42.7453 -73.8711 265° West 131 151 2,100  Level Boston Center
01:24PM 42.7389 -73.8903 246° West 130 150 2,500 660 Climbing Boston Center
01:24PM 42.7300 -73.9183 247° West 124 143 2,900 660 Climbing Boston Center
01:25PM 42.7183 -73.9275 210° Southwest 137 158 3,200 960 Climbing Boston Center
01:25PM 42.6956 -73.9300 185° South 147 169 3,800 1,080 Climbing Boston Center
01:26PM 42.6786 -73.9303 181° South 143 165 4,300 1,380 Climbing Boston Center
01:26PM 42.6589 -73.9319 184° South 136 157 5,200 1,200 Climbing Boston Center
01:27PM 42.6403 -73.9264 168° South 131 151 5,600 540 Climbing Boston Center
01:27PM 42.6214 -73.9133 153° Southeast 158 182 5,800 480 Climbing Boston Center
01:28PM 42.6011 -73.8936 144° Southeast 166 191 6,100 540 Climbing Boston Center
01:28PM 42.5806 -73.8792 153° Southeast 181 208 6,400 480 Climbing Boston Center
01:29PM 42.5575 -73.8606 149° Southeast 177 204 6,600 480 Climbing Boston Center
01:29PM 42.5314 -73.8422 153° Southeast 185 213 6,900 540 Climbing Boston Center
01:30PM 42.5119 -73.8281 152° Southeast 181 208 7,200 480 Climbing Boston Center
01:30PM 42.4858 -73.8094 152° Southeast 188 216 7,400 300 Climbing Boston Center
01:31PM 42.4622 -73.7914 151° Southeast 186 214 7,500 60 Climbing Boston Center
01:31PM 42.4383 -73.7761 155° Southeast 193 222 7,500  Level Boston Center
01:32PM 42.4142 -73.7561 149° Southeast 195 224 7,500  Level Boston Center
01:32PM 42.3914 -73.7400 152° Southeast 197 227 7,500  Level Boston Center
01:33PM 42.3669 -73.7211 150° Southeast 195 224 7,500  Level Boston Center
01:33PM 42.3417 -73.7061 156° South 196 226 7,500  Level Boston Center
01:34PM 42.3178 -73.6842 146° Southeast 193 222 7,500  Level Boston Center
01:34PM 42.2947 -73.6703 156° South 196 226 7,500  Level Boston Center
01:35PM 42.2703 -73.6489 147° Southeast 192 221 7,500  Level Boston Center
01:35PM 42.2475 -73.6342 154° Southeast 197 227 7,500  Level Boston Center
01:36PM 42.2217 -73.6131 149° Southeast 195 224 7,500  Level Boston Center
01:37PM 42.1733 -73.5797 153° Southeast 196 226 7,500  Level Boston Center
01:38PM 42.1244 -73.5417 150° Southeast 199 229 7,500  Level Boston Center
01:38PM 42.1264 -73.5433 328° Northwest 196 226 7,500  Level Boston Center
01:39PM 42.0906 -73.5175 152° Southeast 196 226 7,500  Level Boston Center
01:39PM 42.0764 -73.5086 155° Southeast 199 229 7,500  Level Boston Center
01:40PM 42.0375 -73.4803 152° Southeast 197 227 7,500  Level Boston Center
01:40PM 42.0217 -73.4686 151° Southeast 199 229 7,500  Level Boston Center
01:41PM 41.9886 -73.4447 152° Southeast 197 227 7,500  Level Boston Center
01:41PM 41.9733 -73.4339 152° Southeast 198 228 7,500  Level Boston Center
01:42PM 41.9378 -73.4083 152° Southeast 195 224 7,500  Level Boston Center
01:42PM 41.9219 -73.3964 151° Southeast 197 227 7,500  Level Boston Center
01:43PM 41.8856 -73.3689 151° Southeast 193 222 7,500  Level Boston Center
01:43PM 41.8747 -73.3619 154° Southeast 195 224 7,500  Level Boston Center
01:44PM 41.8442 -73.3389 151° Southeast 194 223 7,500  Level Boston Center
01:44PM 41.8267 -73.3267 153° Southeast 194 223 7,500  Level Boston Center
01:45PM 41.7953 -73.3036 151° Southeast 192 221 7,500  Level Boston Center
01:45PM 41.7786 -73.2931 155° Southeast 194 223 7,500  Level Boston Center
01:46PM 41.7478 -73.2717 153° Southeast 191 220 7,500  Level Boston Center
01:46PM 41.7319 -73.2589 149° Southeast 192 221 7,500  Level Boston Center
01:47PM 41.7008 -73.2372 153° Southeast 193 222 7,500  Level Boston Center
01:47PM 41.6817 -73.2222 150° Southeast 192 221 7,500  Level Boston Center
01:48PM 41.6333 -73.1889 153° Southeast 193 222 7,500  Level Boston Center
01:49PM 41.5864 -73.1550 152° Southeast 193 222 7,500  Level Boston Center
01:50PM 41.5342 -73.1172 152° Southeast 199 229 7,500  Level Boston Center
01:51PM 41.4872 -73.0833 152° Southeast 195 224 7,500  Level Boston Center
01:52PM 41.4403 -73.0506 152° Southeast 193 222 7,500  Level Boston Center
01:53PM 41.3947 -73.0175 151° Southeast 191 220 7,500  Level Boston Center
01:54PM 41.3500 -72.9833 150° Southeast 181 208 7,500  Level New York TRACON
01:55PM 41.3000 -72.9500 153° Southeast 186 214 7,500  Level New York TRACON
01:56PM 41.2667 -72.9167 143° Southeast 187 215 7,500  Level New York TRACON
01:57PM 41.2167 -72.8833 153° Southeast 185 213 7,500 -360 Level New York TRACON
01:58PM 41.1667 -72.8500 153° Southeast 199 229 6,800 -840 Descending New York TRACON
01:59PM 41.1167 -72.8167 153° Southeast 202 232 5,900 -960 Descending New York TRACON
02:00PM 41.0667 -72.7833 153° Southeast 205 236 4,900 -1,020 Descending New York TRACON
02:01PM 41.0167 -72.7500 153° Southeast 202 232 3,900 -660 Descending New York TRACON
02:04PM 40.9208 -72.6725 149° Southeast 185 213 2,800 -480 Descending Boston Center
02:05PM 40.8883 -72.6244 132° Southeast 173 199 2,400 -300 Descending Boston Center
02:06PM 40.8581 -72.5803 132° Southeast 169 194 2,200 -600 Descending Boston Center
02:07PM 40.8289 -72.5933 199° South 144 166 1,200 -1,020 Descending Boston Center
02:08PM 40.8369 -72.6244 289° West 118 136 200 -540 Descending Boston Center
02:09PM 40.8514 -72.6458 312° West 99 114 100 -120 Descending Boston Center